createdAt,value
2018-11-23T00:00:27.502Z,62.16
2018-11-23T00:02:56.499Z,61.94
2018-11-23T00:05:24.639Z,62.39
2018-11-23T00:07:53.368Z,62.16
2018-11-23T00:10:22.867Z,62.53
2018-11-23T00:12:51.105Z,62.26
2018-11-23T00:15:20.444Z,62.30
2018-11-23T00:17:48.631Z,61.97
2018-11-23T00:20:19.042Z,62.32
2018-11-23T00:22:47.195Z,62.12
2018-11-23T00:25:17.545Z,62.32
2018-11-23T00:27:45.828Z,61.78
2018-11-23T00:30:19.112Z,62.02
2018-11-23T00:32:47.614Z,61.90
2018-11-23T00:35:18.454Z,62.08
2018-11-23T00:37:47.127Z,61.84
2018-11-23T00:40:19.300Z,62.42
2018-11-23T00:42:47.598Z,62.34
2018-11-23T00:45:15.775Z,61.97
2018-11-23T00:47:44.731Z,61.82
2018-11-23T00:50:14.181Z,62.54
2018-11-23T00:52:42.928Z,62.49
2018-11-23T00:55:12.951Z,62.49
2018-11-23T00:57:41.175Z,62.73
2018-11-23T01:00:18.004Z,63.13
2018-11-23T01:02:46.378Z,62.80
2018-11-23T01:05:15.995Z,63.33
2018-11-23T01:07:44.673Z,63.64
2018-11-23T01:10:13.980Z,63.16
2018-11-23T01:12:42.863Z,63.38
2018-11-23T01:15:11.559Z,64.06
2018-11-23T01:17:39.762Z,64.24
2018-11-23T01:20:14.571Z,64.60
2018-11-23T01:22:42.939Z,64.76
2018-11-23T01:25:12.524Z,64.35
2018-11-23T01:27:41.559Z,64.26
2018-11-23T01:30:19.257Z,64.21
2018-11-23T01:32:47.512Z,64.31
2018-11-23T01:35:15.805Z,64.73
2018-11-23T01:37:43.975Z,64.65
2018-11-23T01:40:14.703Z,64.58
2018-11-23T01:42:42.903Z,64.13
2018-11-23T01:45:11.712Z,64.23
2018-11-23T01:47:39.877Z,64.26
2018-11-23T01:50:12.742Z,63.92
2018-11-23T01:52:40.895Z,64.11
2018-11-23T01:55:10.118Z,64.61
2018-11-23T01:57:38.991Z,64.33
2018-11-23T02:00:08.799Z,64.48
2018-11-23T02:02:36.934Z,64.56
2018-11-23T02:05:05.495Z,64.83
2018-11-23T02:07:33.642Z,65.28
2018-11-23T02:10:01.790Z,64.99
2018-11-23T02:12:29.938Z,65.27
2018-11-23T02:14:58.074Z,64.93
2018-11-23T02:17:26.231Z,64.82
2018-11-23T02:19:56.138Z,64.51
2018-11-23T02:22:24.294Z,64.94
2018-11-23T02:24:52.805Z,65.36
2018-11-23T02:27:21.290Z,65.74
2018-11-23T02:29:49.448Z,65.53
2018-11-23T02:32:17.690Z,65.80
2018-11-23T02:34:45.831Z,65.81
2018-11-23T02:37:14.199Z,65.48
2018-11-23T02:39:42.376Z,65.30
2018-11-23T02:42:10.503Z,65.39
2018-11-23T02:44:38.618Z,65.83
2018-11-23T02:47:06.938Z,66.08
2018-11-23T02:49:35.262Z,66.29
2018-11-23T02:52:03.390Z,66.35
2018-11-23T02:54:31.897Z,66.30
2018-11-23T02:57:00.036Z,66.04
2018-11-23T02:59:28.282Z,66.09
2018-11-23T03:01:56.522Z,66.09
2018-11-23T03:04:24.638Z,65.83
2018-11-23T03:06:52.774Z,65.89
2018-11-23T03:09:20.895Z,65.82
2018-11-23T03:11:49.037Z,65.77
2018-11-23T03:14:17.158Z,65.90
2018-11-23T03:16:45.290Z,66.45
2018-11-23T03:19:13.435Z,66.11
2018-11-23T03:21:41.615Z,65.97
2018-11-23T03:24:09.759Z,66.34
2018-11-23T03:26:37.891Z,65.97
2018-11-23T03:29:06.275Z,66.31
2018-11-23T03:31:34.394Z,66.13
2018-11-23T03:34:02.537Z,66.35
2018-11-23T03:36:30.697Z,66.43
2018-11-23T03:38:58.867Z,66.29
2018-11-23T03:41:27.051Z,66.33
2018-11-23T03:43:55.224Z,65.93
2018-11-23T03:46:23.374Z,65.92
2018-11-23T03:48:51.535Z,66.22
2018-11-23T03:51:19.691Z,66.10
2018-11-23T03:53:47.856Z,66.11
2018-11-23T03:56:16.008Z,66.28
2018-11-23T03:58:44.167Z,66.70
2018-11-23T04:01:12.323Z,66.70
2018-11-23T04:03:40.486Z,66.95
2018-11-23T04:06:08.636Z,66.84
2018-11-23T04:08:36.795Z,66.91
2018-11-23T04:11:05.165Z,67.22
2018-11-23T04:13:33.323Z,66.81
2018-11-23T04:16:01.485Z,67.02
2018-11-23T04:18:29.648Z,66.99
2018-11-23T04:21:02.863Z,66.95
2018-11-23T04:23:32.291Z,67.46
2018-11-23T04:26:00.439Z,67.44
2018-11-23T04:28:28.603Z,66.98
2018-11-23T04:30:57.000Z,66.75
2018-11-23T04:33:25.683Z,66.57
2018-11-23T04:35:54.076Z,66.80
2018-11-23T04:38:22.443Z,66.80
2018-11-23T04:40:50.617Z,66.52
2018-11-23T04:43:18.796Z,66.73
2018-11-23T04:45:47.020Z,67.00
2018-11-23T04:48:15.226Z,66.89
2018-11-23T04:50:43.435Z,66.95
2018-11-23T04:53:11.602Z,66.79
2018-11-23T04:55:39.783Z,66.25
2018-11-23T04:58:08.047Z,66.26
2018-11-23T05:00:36.218Z,66.67
2018-11-23T05:03:04.398Z,66.55
2018-11-23T05:05:32.589Z,66.63
2018-11-23T05:08:00.755Z,67.04
2018-11-23T05:10:28.955Z,67.22
2018-11-23T05:12:57.119Z,66.89
2018-11-23T05:15:25.299Z,66.82
2018-11-23T05:17:53.505Z,66.80
2018-11-23T05:20:21.684Z,66.55
2018-11-23T05:22:49.851Z,66.66
2018-11-23T05:25:19.008Z,66.96
2018-11-23T05:27:47.178Z,66.56
2018-11-23T05:30:19.669Z,66.56
2018-11-23T05:32:47.840Z,67.04
2018-11-23T05:35:16.811Z,66.85
2018-11-23T05:37:45.023Z,66.65
2018-11-23T05:40:15.110Z,66.61
2018-11-23T05:42:43.275Z,66.51
2018-11-23T05:45:13.759Z,66.08
2018-11-23T05:47:41.931Z,66.18
2018-11-23T05:50:13.749Z,65.97
2018-11-23T05:52:42.851Z,65.81
2018-11-23T05:55:11.635Z,65.94
2018-11-23T05:57:40.123Z,66.03
2018-11-23T06:00:11.770Z,65.46
2018-11-23T06:02:39.923Z,65.70
2018-11-23T06:05:08.547Z,65.92
2018-11-23T06:07:36.747Z,65.96
2018-11-23T06:10:06.856Z,65.81
2018-11-23T06:12:35.099Z,65.22
2018-11-23T06:15:03.383Z,65.40
2018-11-23T06:17:31.555Z,65.23
2018-11-23T06:19:59.704Z,64.69
2018-11-23T06:22:27.887Z,65.43
2018-11-23T06:24:56.035Z,65.46
2018-11-23T06:27:24.267Z,65.12
2018-11-23T06:29:52.419Z,65.27
2018-11-23T06:32:32.091Z,65.25
2018-11-23T06:35:00.239Z,65.19
2018-11-23T06:37:28.395Z,65.32
2018-11-23T06:39:56.555Z,65.26
2018-11-23T06:42:24.778Z,65.15
2018-11-23T06:44:52.963Z,64.78
2018-11-23T06:47:21.259Z,64.69
2018-11-23T06:49:49.442Z,64.98
2018-11-23T06:52:17.611Z,64.85
2018-11-23T06:54:46.016Z,64.83
2018-11-23T06:57:14.219Z,64.89
2018-11-23T06:59:42.391Z,64.69
2018-11-23T07:02:10.555Z,64.63
2018-11-23T07:04:38.736Z,64.76
2018-11-23T07:07:06.911Z,64.31
2018-11-23T07:09:35.087Z,63.96
2018-11-23T07:12:03.295Z,64.40
2018-11-23T07:14:31.474Z,64.36
2018-11-23T07:16:59.643Z,64.24
2018-11-23T07:19:27.823Z,64.50
2018-11-23T07:21:56.095Z,64.10
2018-11-23T07:24:24.276Z,63.95
2018-11-23T07:26:52.436Z,64.11
2018-11-23T07:29:20.632Z,63.74
2018-11-23T07:31:48.800Z,64.17
2018-11-23T07:34:16.969Z,64.02
2018-11-23T07:36:45.152Z,63.84
2018-11-23T07:40:23.762Z,63.68
2018-11-23T07:42:52.246Z,64.00
2018-11-23T07:45:20.519Z,63.65
2018-11-23T07:47:48.680Z,63.44
2018-11-23T07:50:16.843Z,63.37
2018-11-23T07:52:45.007Z,63.27
2018-11-23T07:55:13.640Z,63.19
2018-11-23T07:57:42.021Z,63.55
2018-11-23T08:00:13.879Z,63.26
2018-11-23T08:02:42.447Z,63.35
2018-11-23T08:05:12.463Z,63.21
2018-11-23T08:07:40.633Z,62.94
2018-11-23T08:10:10.530Z,62.84
2018-11-23T08:12:39.351Z,63.02
2018-11-23T08:15:13.953Z,62.61
2018-11-23T08:17:42.163Z,62.65
2018-11-23T08:20:12.376Z,62.47
2018-11-23T08:22:40.859Z,62.92
2018-11-23T08:25:10.346Z,62.25
2018-11-23T08:27:38.847Z,62.62
2018-11-23T08:30:10.763Z,62.15
2018-11-23T08:32:39.053Z,62.30
2018-11-23T08:35:07.247Z,62.55
2018-11-23T08:37:35.459Z,62.41
2018-11-23T08:40:04.011Z,62.68
2018-11-23T08:42:32.180Z,62.64
2018-11-23T08:45:00.448Z,62.40
2018-11-23T08:47:28.606Z,62.62
2018-11-23T08:49:56.755Z,62.18
2018-11-23T08:52:25.043Z,62.48
2018-11-23T08:54:53.255Z,62.14
2018-11-23T08:57:21.432Z,62.08
2018-11-23T08:59:49.579Z,62.05
2018-11-23T09:02:17.823Z,62.32
2018-11-23T09:04:45.999Z,62.23
2018-11-23T09:07:14.167Z,61.87
2018-11-23T09:09:42.327Z,62.25
2018-11-23T09:12:10.471Z,62.18
2018-11-23T09:14:38.631Z,61.69
2018-11-23T09:17:06.796Z,61.69
2018-11-23T09:19:35.105Z,61.85
2018-11-23T09:22:03.277Z,61.35
2018-11-23T09:24:31.435Z,61.29
2018-11-23T09:26:59.631Z,61.50
2018-11-23T09:29:27.839Z,61.64
2018-11-23T09:31:56.182Z,61.04
2018-11-23T09:34:24.393Z,61.32
2018-11-23T09:36:52.542Z,60.84
2018-11-23T09:39:20.695Z,61.25
2018-11-23T09:41:48.867Z,60.74
2018-11-23T09:44:17.156Z,61.15
2018-11-23T09:46:45.319Z,60.94
2018-11-23T09:49:13.507Z,60.99
2018-11-23T09:51:41.823Z,60.91
2018-11-23T09:54:09.995Z,60.77
2018-11-23T09:56:38.206Z,60.65
2018-11-23T09:59:06.391Z,60.45
2018-11-23T10:01:34.547Z,60.31
2018-11-23T10:04:02.732Z,60.54
2018-11-23T10:06:30.892Z,60.52
2018-11-23T10:08:59.065Z,60.20
2018-11-23T10:11:27.223Z,60.48
2018-11-23T10:13:55.395Z,60.33
2018-11-23T10:16:23.555Z,60.52
2018-11-23T10:18:51.830Z,60.78
2018-11-23T10:21:19.987Z,60.44
2018-11-23T10:23:48.183Z,60.26
2018-11-23T10:26:16.347Z,60.45
2018-11-23T10:28:44.518Z,60.14
2018-11-23T10:31:12.685Z,60.05
2018-11-23T10:33:40.859Z,60.04
2018-11-23T10:36:09.051Z,60.15
2018-11-23T10:38:37.235Z,59.80
2018-11-23T10:41:05.719Z,60.28
2018-11-23T10:43:34.433Z,59.87
2018-11-23T10:46:03.417Z,60.49
2018-11-23T10:48:31.600Z,60.33
2018-11-23T10:50:59.802Z,60.50
2018-11-23T10:53:27.947Z,60.21
2018-11-23T10:55:56.143Z,60.18
2018-11-23T10:58:24.358Z,60.24
2018-11-23T11:00:57.952Z,60.36
2018-11-23T11:03:32.596Z,60.76
2018-11-23T11:06:08.235Z,60.36
2018-11-23T11:08:36.399Z,60.47
2018-11-23T11:11:05.048Z,60.77
2018-11-23T11:13:33.336Z,60.90
2018-11-23T11:16:01.620Z,61.02
2018-11-23T11:18:29.822Z,61.13
2018-11-23T11:20:58.615Z,60.66
2018-11-23T11:23:26.759Z,60.79
2018-11-23T11:25:54.963Z,60.78
2018-11-23T11:28:23.380Z,61.09
2018-11-23T11:30:51.620Z,61.19
2018-11-23T11:33:19.895Z,61.02
2018-11-23T11:35:48.051Z,61.41
2018-11-23T11:38:16.344Z,61.26
2018-11-23T11:40:44.530Z,60.88
2018-11-23T11:43:12.699Z,60.90
2018-11-23T11:45:40.890Z,60.80
2018-11-23T11:48:09.055Z,61.12
2018-11-23T11:50:37.213Z,61.41
2018-11-23T11:53:05.591Z,61.07
2018-11-23T11:55:33.765Z,61.02
2018-11-23T11:58:01.979Z,61.32
2018-11-23T12:00:30.147Z,60.80
2018-11-23T12:02:58.319Z,61.54
2018-11-23T12:05:26.487Z,61.18
2018-11-23T12:07:54.871Z,61.30
2018-11-23T12:10:24.779Z,60.85
2018-11-23T12:12:53.080Z,61.42
2018-11-23T12:15:21.348Z,61.05
2018-11-23T12:17:49.523Z,61.55
2018-11-23T12:20:19.219Z,61.46
2018-11-23T12:22:47.824Z,60.98
2018-11-23T12:25:16.182Z,61.06
2018-11-23T12:27:44.347Z,61.59
2018-11-23T12:30:14.575Z,61.62
2018-11-23T12:32:43.582Z,61.37
2018-11-23T12:35:13.743Z,61.14
2018-11-23T12:37:41.987Z,61.11
2018-11-23T12:40:11.963Z,61.22
2018-11-23T12:42:40.283Z,61.35
2018-11-23T12:45:10.291Z,61.24
2018-11-23T12:47:38.564Z,61.08
2018-11-23T12:50:09.319Z,61.07
2018-11-23T12:52:37.578Z,61.20
2018-11-23T12:55:09.287Z,61.23
2018-11-23T12:57:37.459Z,61.42
2018-11-23T13:00:09.552Z,61.11
2018-11-23T13:02:37.715Z,60.99
2018-11-23T13:05:06.259Z,61.52
2018-11-23T13:07:34.431Z,61.53
2018-11-23T13:10:02.599Z,61.65
2018-11-23T13:12:30.819Z,61.74
2018-11-23T13:14:58.992Z,61.34
2018-11-23T13:17:27.200Z,61.26
2018-11-23T13:19:55.371Z,61.68
2018-11-23T13:22:23.527Z,61.36
2018-11-23T13:24:51.950Z,61.77
2018-11-23T13:27:20.103Z,61.73
2018-11-23T13:29:48.403Z,61.86
2018-11-23T13:32:16.975Z,61.85
2018-11-23T13:34:45.163Z,61.33
2018-11-23T13:37:13.527Z,61.42
2018-11-23T13:39:41.924Z,61.50
2018-11-23T13:42:10.130Z,61.32
2018-11-23T13:44:38.320Z,61.65
2018-11-23T13:47:06.758Z,61.85
2018-11-23T13:49:34.952Z,61.71
2018-11-23T13:52:03.124Z,61.54
2018-11-23T13:54:31.299Z,61.72
2018-11-23T13:56:59.470Z,62.11
2018-11-23T13:59:27.649Z,61.82
2018-11-23T14:01:55.896Z,61.81
2018-11-23T14:04:24.071Z,61.99
2018-11-23T14:06:52.550Z,62.04
2018-11-23T14:09:20.731Z,62.14
2018-11-23T14:11:48.900Z,62.30
2018-11-23T14:14:17.087Z,62.35
2018-11-23T14:16:45.259Z,62.34
2018-11-23T14:19:13.457Z,62.89
2018-11-23T14:21:41.866Z,62.56
2018-11-23T14:24:10.040Z,62.46
2018-11-23T14:26:38.214Z,62.89
2018-11-23T14:29:06.691Z,63.13
2018-11-23T14:31:34.875Z,63.12
2018-11-23T14:34:03.056Z,63.06
2018-11-23T14:36:31.243Z,62.75
2018-11-23T14:38:59.413Z,63.09
2018-11-23T14:41:27.593Z,62.60
2018-11-23T14:43:55.755Z,62.57
2018-11-23T14:46:23.919Z,62.58
2018-11-23T14:48:52.075Z,62.87
2018-11-23T14:51:20.242Z,62.60
2018-11-23T14:53:48.395Z,62.41
2018-11-23T14:56:16.561Z,62.90
2018-11-23T14:58:44.723Z,62.52
2018-11-23T15:01:12.888Z,62.64
2018-11-23T15:03:41.039Z,63.14
2018-11-23T15:06:09.251Z,62.77
2018-11-23T15:08:37.483Z,62.98
2018-11-23T15:11:06.152Z,62.83
2018-11-23T15:13:34.300Z,62.69
2018-11-23T15:16:02.463Z,62.68
2018-11-23T15:18:30.617Z,63.05
2018-11-23T15:20:58.791Z,63.17
2018-11-23T15:23:26.943Z,63.10
2018-11-23T15:25:55.147Z,63.22
2018-11-23T15:28:23.299Z,63.37
2018-11-23T15:30:51.463Z,62.87
2018-11-23T15:33:19.629Z,63.18
2018-11-23T15:35:47.979Z,62.92
2018-11-23T15:38:17.784Z,63.08
2018-11-23T15:40:45.959Z,62.53
2018-11-23T15:43:15.155Z,63.11
2018-11-23T15:45:43.320Z,63.10
2018-11-23T15:48:12.029Z,63.46
2018-11-23T15:50:41.114Z,63.57
2018-11-23T15:53:10.552Z,63.55
2018-11-23T15:55:39.351Z,63.09
2018-11-23T15:58:09.027Z,63.21
2018-11-23T16:00:38.518Z,63.52
2018-11-23T16:03:08.230Z,63.53
2018-11-23T16:05:36.499Z,63.54
2018-11-23T16:08:06.467Z,63.61
2018-11-23T16:10:35.831Z,63.92
2018-11-23T16:13:11.133Z,63.67
2018-11-23T16:15:33.622Z,63.71
2018-11-23T16:18:02.209Z,63.92
2018-11-23T16:20:32.523Z,64.09
2018-11-23T16:23:05.935Z,63.63
2018-11-23T16:25:34.403Z,63.53
2018-11-23T16:28:03.919Z,63.58
2018-11-23T16:30:34.335Z,63.43
2018-11-23T16:33:03.620Z,64.02
2018-11-23T16:35:35.093Z,63.71
2018-11-23T16:38:04.910Z,63.66
2018-11-23T16:40:34.411Z,64.01
2018-11-23T16:43:03.207Z,64.11
2018-11-23T16:45:35.572Z,64.00
2018-11-23T16:48:05.197Z,64.32
2018-11-23T16:50:33.467Z,64.07
2018-11-23T16:53:02.169Z,64.48
2018-11-23T16:55:30.623Z,64.62
2018-11-23T16:58:00.932Z,64.05
2018-11-23T17:00:30.264Z,64.48
2018-11-23T17:02:59.758Z,64.17
2018-11-23T17:05:31.432Z,64.77
2018-11-23T17:07:59.699Z,64.42
2018-11-23T17:10:27.876Z,64.68
2018-11-23T17:12:56.035Z,64.85
2018-11-23T17:15:25.668Z,64.59
2018-11-23T17:17:53.827Z,64.59
2018-11-23T17:20:23.444Z,64.75
2018-11-23T17:22:52.735Z,64.73
2018-11-23T17:25:21.839Z,64.90
2018-11-23T17:27:50.548Z,64.92
2018-11-23T17:30:20.235Z,64.40
2018-11-23T17:32:48.391Z,65.07
2018-11-23T17:35:16.562Z,64.96
2018-11-23T17:37:44.721Z,64.59
2018-11-23T17:40:14.589Z,65.07
2018-11-23T17:42:42.820Z,64.52
2018-11-23T17:45:16.459Z,64.37
2018-11-23T17:47:44.631Z,64.49
2018-11-23T17:50:15.571Z,64.91
2018-11-23T17:52:44.039Z,64.52
2018-11-23T17:55:36.779Z,65.04
2018-11-23T17:58:05.203Z,64.57
2018-11-23T18:00:38.855Z,64.94
2018-11-23T18:03:03.235Z,64.34
2018-11-23T18:05:32.339Z,64.65
2018-11-23T18:08:01.120Z,64.41
2018-11-23T18:10:30.540Z,64.36
2018-11-23T18:12:59.412Z,64.54
2018-11-23T18:15:28.833Z,64.53
2018-11-23T18:17:57.917Z,64.63
2018-11-23T18:20:27.124Z,65.15
2018-11-23T18:22:56.212Z,64.96
2018-11-23T18:25:26.651Z,64.79
2018-11-23T18:28:00.113Z,64.45
2018-11-23T18:30:29.393Z,64.78
2018-11-23T18:32:57.597Z,64.69
2018-11-23T18:35:25.775Z,64.87
2018-11-23T18:37:53.975Z,64.62
2018-11-23T18:40:22.160Z,64.89
2018-11-23T18:42:50.348Z,64.85
2018-11-23T18:45:18.523Z,65.17
2018-11-23T18:47:46.704Z,65.06
2018-11-23T18:50:16.968Z,64.89
2018-11-23T18:52:45.143Z,64.42
2018-11-23T18:55:18.219Z,64.60
2018-11-23T18:57:42.403Z,64.70
2018-11-23T19:00:17.248Z,64.92
2018-11-23T19:02:46.515Z,64.28
2018-11-23T19:05:23.064Z,64.54
2018-11-23T19:07:51.239Z,64.27
2018-11-23T19:10:19.423Z,64.12
2018-11-23T19:12:47.605Z,63.98
2018-11-23T19:15:25.273Z,64.11
2018-11-23T19:17:45.947Z,64.30
2018-11-23T19:20:16.024Z,64.16
2018-11-23T19:22:48.071Z,63.95
2018-11-23T19:25:16.245Z,63.74
2018-11-23T19:27:44.435Z,64.50
2018-11-23T19:30:13.823Z,63.89
2018-11-23T19:32:42.004Z,64.52
2018-11-23T19:35:10.171Z,64.44
2018-11-23T19:37:38.851Z,64.02
2018-11-23T19:40:09.594Z,64.28
2018-11-23T19:42:37.778Z,64.32
2018-11-23T19:45:07.611Z,63.53
2018-11-23T19:47:35.771Z,63.72
2018-11-23T19:50:04.368Z,63.48
2018-11-23T19:52:32.535Z,63.33
2018-11-23T19:55:00.726Z,64.01
2018-11-23T19:57:28.891Z,63.94
2018-11-23T19:59:57.077Z,63.63
2018-11-23T20:02:25.240Z,64.14
2018-11-23T20:04:53.415Z,63.82
2018-11-23T20:07:21.587Z,64.04
2018-11-23T20:09:49.768Z,64.06
2018-11-23T20:12:17.936Z,64.11
2018-11-23T20:14:46.114Z,64.28
2018-11-23T20:17:14.283Z,64.09
2018-11-23T20:19:42.451Z,64.01
2018-11-23T20:22:10.619Z,63.66
2018-11-23T20:24:38.791Z,64.17
2018-11-23T20:27:06.951Z,64.36
2018-11-23T20:29:35.486Z,63.94
2018-11-23T20:32:03.356Z,64.50
2018-11-23T20:34:31.500Z,63.55
2018-11-23T20:36:59.666Z,64.19
2018-11-23T20:39:27.844Z,63.87
2018-11-23T20:41:56.018Z,63.70
2018-11-23T20:44:24.219Z,63.61
2018-11-23T20:46:52.411Z,63.22
2018-11-23T20:49:20.600Z,63.34
2018-11-23T20:51:48.779Z,63.71
2018-11-23T20:54:16.966Z,62.95
2018-11-23T20:56:45.153Z,63.22
2018-11-23T20:59:13.355Z,63.72
2018-11-23T21:01:41.530Z,63.43
2018-11-23T21:04:09.716Z,63.88
2018-11-23T21:06:37.900Z,63.53
2018-11-23T21:09:09.121Z,63.16
2018-11-23T21:11:37.343Z,63.16
2018-11-23T21:14:06.089Z,63.63
2018-11-23T21:16:34.286Z,62.89
2018-11-23T21:19:02.475Z,63.30
2018-11-23T21:21:30.668Z,63.25
2018-11-23T21:23:58.852Z,62.70
2018-11-23T21:26:27.045Z,62.54
2018-11-23T21:28:55.223Z,62.83
2018-11-23T21:31:23.424Z,62.71
2018-11-23T21:33:51.611Z,62.05
2018-11-23T21:36:19.803Z,62.31
2018-11-23T21:38:47.983Z,62.47
2018-11-23T21:41:16.167Z,62.55
2018-11-23T21:43:44.343Z,62.24
2018-11-23T21:46:12.520Z,61.92
2018-11-23T21:48:40.679Z,62.06
2018-11-23T21:51:08.855Z,61.95
2018-11-23T21:53:37.025Z,61.83
2018-11-23T21:56:09.462Z,61.75
2018-11-23T21:58:33.654Z,62.29
2018-11-23T22:01:01.893Z,61.90
2018-11-23T22:03:30.155Z,62.33
2018-11-23T22:05:58.340Z,62.27
2018-11-23T22:08:26.506Z,62.05
2018-11-23T22:10:54.675Z,61.70
2018-11-23T22:13:22.856Z,61.56
2018-11-23T22:15:51.035Z,61.06
2018-11-23T22:18:19.223Z,61.04
2018-11-23T22:20:47.390Z,61.59
2018-11-23T22:23:15.571Z,61.31
2018-11-23T22:25:43.745Z,61.41
2018-11-23T22:28:11.931Z,61.33
2018-11-23T22:30:40.096Z,61.06
2018-11-23T22:33:08.267Z,61.53
2018-11-23T22:35:36.439Z,61.06
2018-11-23T22:38:04.745Z,61.60
2018-11-23T22:40:32.911Z,61.03
2018-11-23T22:43:01.098Z,60.97
2018-11-23T22:45:29.260Z,61.37
2018-11-23T22:47:57.433Z,61.49
2018-11-23T22:50:25.636Z,61.38
2018-11-23T22:52:53.868Z,60.73
2018-11-23T22:55:22.033Z,60.77
2018-11-23T22:57:50.215Z,61.33
2018-11-23T23:00:26.004Z,60.64
2018-11-23T23:02:54.187Z,60.93
2018-11-23T23:05:23.361Z,61.20
2018-11-23T23:07:51.584Z,61.02
2018-11-23T23:10:19.812Z,61.24
2018-11-23T23:12:48.092Z,61.27
2018-11-23T23:15:16.352Z,60.96
2018-11-23T23:17:44.737Z,61.24
2018-11-23T23:20:15.181Z,60.97
2018-11-23T23:22:43.339Z,60.63
2018-11-23T23:25:12.144Z,61.22
2018-11-23T23:27:40.310Z,60.79
2018-11-23T23:30:10.878Z,61.43
2018-11-23T23:32:39.343Z,60.87
2018-11-23T23:35:08.752Z,60.95
2018-11-23T23:37:37.108Z,60.62
2018-11-23T23:40:07.883Z,60.39
2018-11-23T23:42:36.062Z,60.77
2018-11-23T23:45:04.812Z,60.50
2018-11-23T23:47:32.971Z,60.55
2018-11-23T23:50:01.155Z,60.25
2018-11-23T23:52:29.327Z,60.30
2018-11-23T23:54:57.483Z,60.72
2018-11-23T23:57:25.647Z,60.44
2018-11-23T23:59:53.800Z,60.65
